Time;durP1;ratioP1;P1;durP2;ratioP2;P2;SDS_P1;SDS_P2;PMS_P1;PMS_P2;Temp;Humidity;BMP_temperature;BMP_pressure;BME280_temperature;BME280_humidity;BME280_pressure;Samples;Min_cycle;Max_cycle;Signal;HPM_P1;HPM_P2
2022/04/06 00:00:40;;;;;;;;;;;;;;;17.52;56.97;98393.59;2086094;28;19925;-55
2022/04/06 00:01:41;;;;;;;;;;;;;;;17.51;56.92;98383.06;2084540;28;19924;-54
2022/04/06 00:02:44;;;;;;;;;;;;;;;17.52;56.79;98376.66;2084668;28;20563;-51
2022/04/06 00:03:44;;;;;;;;;;;;;;;17.51;57.04;98383.06;2080441;28;20050;-54
2022/04/06 00:04:46;;;;;;;;;;;;;;;17.50;56.93;98390.31;2086005;28;19924;-53
2022/04/06 00:05:46;;;;;;;;;;;;;;;17.47;57.03;98379.97;2085814;28;20618;-53
2022/04/06 00:06:48;;;;;;;;;;;;;;;17.47;57.09;98381.81;2084633;28;19924;-53
2022/04/06 00:07:49;;;;;;;;;;;;;;;17.47;56.91;98385.34;2082646;28;20011;-53
2022/04/06 00:08:50;;;;;;;;;;;;;;;17.47;56.81;98381.81;2086171;28;19924;-52
2022/04/06 00:09:51;;;;;;;;;;;;;;;17.47;56.93;98382.66;2082730;28;20006;-51
2022/04/06 00:10:52;;;;;;;;;;;;;;;17.46;56.84;98377.50;2084336;28;20011;-54
2022/04/06 00:11:53;;;;;;;;;;;;;;;17.46;57.02;98383.66;2083708;28;20460;-54
2022/04/06 00:12:55;;;;;;;;;;;;;;;17.45;57.00;98376.66;2086431;28;19924;-52
2022/04/06 00:13:56;;;;;;;;;;;;;;;17.43;56.75;98376.84;2087001;28;20402;-53
2022/04/06 00:14:57;;;;;;;;;;;;;;;17.42;57.01;98374.41;2086148;28;19979;-53
2022/04/06 00:15:58;;;;;;;;;;;;;;;17.43;57.03;98378.72;2084497;28;19974;-54
2022/04/06 00:17:04;;;;;;;;;;;;;;;17.43;56.92;98378.72;2085842;28;19924;-55
2022/04/06 00:18:06;;;;;;;;;;;;;;;17.41;57.05;98376.25;2086098;28;19921;-52
2022/04/06 00:19:07;;;;;;;;;;;;;;;17.42;57.08;98382.44;2086856;28;19999;-53
2022/04/06 00:20:10;;;;;;;;;;;;;;;17.40;57.10;98379.94;2086011;28;19924;-52
2022/04/06 00:21:11;;;;;;;;;;;;;;;17.41;56.93;98372.72;2084037;28;19931;-54
2022/04/06 00:22:12;;;;;;;;;;;;;;;17.40;56.96;98376.44;2085447;28;19956;-53
2022/04/06 00:23:14;;;;;;;;;;;;;;;17.39;56.94;98370.25;2084245;28;19932;-54
2022/04/06 00:24:16;;;;;;;;;;;;;;;17.39;57.18;98374.81;2083977;28;20018;-55
2022/04/06 00:25:17;;;;;;;;;;;;;;;17.39;57.03;98377.47;2085703;28;19931;-56
2022/04/06 00:26:18;;;;;;;;;;;;;;;17.38;56.90;98373.97;2085788;28;20286;-54
2022/04/06 00:27:20;;;;;;;;;;;;;;;17.38;57.08;98378.50;2084473;28;19924;-52
2022/04/06 00:28:20;;;;;;;;;;;;;;;17.35;57.09;98373.53;2084210;28;19929;-50
2022/04/06 00:29:22;;;;;;;;;;;;;;;17.36;57.09;98378.72;2083591;28;19928;-55
2022/04/06 00:30:22;;;;;;;;;;;;;;;17.35;56.93;98376.22;2081153;28;19931;-52
2022/04/06 00:31:24;;;;;;;;;;;;;;;17.35;57.03;98368.16;2084277;28;19981;-53
2022/04/06 00:32:25;;;;;;;;;;;;;;;17.35;57.11;98369.00;2084423;28;19999;-50
2022/04/06 00:33:27;;;;;;;;;;;;;;;17.34;57.00;98375.41;2084802;28;20551;-54
2022/04/06 00:35:48;;;;;;;;;;;;;;;17.31;57.12;98365.06;2085531;28;19925;-53
2022/04/06 00:36:49;;;;;;;;;;;;;;;17.31;57.18;98366.94;2087934;28;19920;-54
2022/04/06 00:37:50;;;;;;;;;;;;;;;17.31;57.01;98366.94;2083977;28;19924;-48
2022/04/06 00:38:52;;;;;;;;;;;;;;;17.32;57.20;98365.91;2085267;28;19920;-55
2022/04/06 00:39:53;;;;;;;;;;;;;;;17.30;57.12;98359.91;2087266;28;19931;-56
2022/04/06 00:40:54;;;;;;;;;;;;;;;17.31;57.07;98366.94;2085229;28;19958;-57
2022/04/06 00:41:55;;;;;;;;;;;;;;;17.30;57.05;98365.25;2087356;28;19924;-59
2022/04/06 00:42:57;;;;;;;;;;;;;;;17.28;57.05;98365.47;2085309;28;21808;-52
2022/04/06 00:44:11;;;;;;;;;;;;;;;17.27;56.94;98355.78;2085593;28;19939;-54
2022/04/06 00:45:13;;;;;;;;;;;;;;;17.26;57.05;98362.16;2084415;28;19962;-56
2022/04/06 00:46:13;;;;;;;;;;;;;;;17.25;57.19;98362.38;2087807;28;19932;-54
2022/04/06 00:47:15;;;;;;;;;;;;;;;17.26;57.13;98364.03;2081525;28;19935;-56
2022/04/06 00:48:15;;;;;;;;;;;;;;;17.25;57.05;98357.84;2082906;28;19928;-58
2022/04/06 00:49:18;;;;;;;;;;;;;;;17.25;57.24;98359.72;2083977;28;19929;-50
2022/04/06 00:50:20;;;;;;;;;;;;;;;17.25;57.00;98357.03;2081901;28;19928;-59
2022/04/06 00:51:21;;;;;;;;;;;;;;;17.23;57.19;98356.41;2086084;28;20562;-52
2022/04/06 00:52:22;;;;;;;;;;;;;;;17.24;57.26;98358.03;2085250;28;19925;-49
2022/04/06 00:53:24;;;;;;;;;;;;;;;17.24;57.01;98360.72;2086963;28;19924;-53
2022/04/06 00:54:25;;;;;;;;;;;;;;;17.22;57.21;98362.75;2087149;28;19960;-53
2022/04/06 00:55:28;;;;;;;;;;;;;;;17.20;57.38;98358.44;2088986;28;19920;-54
2022/04/06 00:56:28;;;;;;;;;;;;;;;17.21;57.44;98359.25;2088423;28;19921;-51
2022/04/06 00:57:30;;;;;;;;;;;;;;;17.19;57.11;98356.81;2082958;28;20011;-55
2022/04/06 00:58:31;;;;;;;;;;;;;;;17.18;57.21;98352.44;2087086;28;19928;-55
2022/04/06 00:59:32;;;;;;;;;;;;;;;17.19;57.33;98353.31;2084997;28;20347;-49
2022/04/06 01:00:34;;;;;;;;;;;;;;;17.19;57.32;98354.13;2086529;28;19989;-48
2022/04/06 01:01:35;;;;;;;;;;;;;;;17.16;57.24;98354.53;2086857;28;20320;-60
2022/04/06 01:02:36;;;;;;;;;;;;;;;17.17;57.32;98356.16;2088905;28;19931;-53
2022/04/06 01:03:37;;;;;;;;;;;;;;;17.17;57.26;98355.34;2086754;28;19925;-51
2022/04/06 01:04:40;;;;;;;;;;;;;;;17.16;57.20;98357.22;2085022;28;20553;-53
2022/04/06 01:05:42;;;;;;;;;;;;;;;17.15;57.34;98352.03;2088361;28;19921;-54
2022/04/06 01:06:43;;;;;;;;;;;;;;;17.15;57.43;98350.16;2090405;28;20454;-49
2022/04/06 01:07:49;;;;;;;;;;;;;;;17.15;57.42;98352.03;2084460;28;19929;-54
2022/04/06 01:08:49;;;;;;;;;;;;;;;17.13;57.24;98349.56;2085513;28;19946;-54
2022/04/06 01:09:51;;;;;;;;;;;;;;;17.13;57.26;98354.94;2087942;28;19924;-54
2022/04/06 01:10:51;;;;;;;;;;;;;;;17.11;57.42;98348.94;2089231;28;19924;-55
2022/04/06 01:11:53;;;;;;;;;;;;;;;17.11;57.45;98346.25;2083072;28;19929;-55
2022/04/06 01:12:54;;;;;;;;;;;;;;;17.11;57.39;98351.63;2090139;28;19924;-55
2022/04/06 01:13:56;;;;;;;;;;;;;;;17.11;57.32;98346.25;2085738;28;20067;-55
2022/04/06 01:14:57;;;;;;;;;;;;;;;17.12;57.27;98347.06;2088611;28;19987;-51
2022/04/06 01:15:58;;;;;;;;;;;;;;;17.11;57.39;98350.78;2089187;28;19928;-53
2022/04/06 01:17:01;;;;;;;;;;;;;;;17.08;57.31;98346.66;2084828;28;19925;-55
2022/04/06 01:18:02;;;;;;;;;;;;;;;17.08;57.53;98352.03;2086120;28;19925;-54
2022/04/06 01:19:03;;;;;;;;;;;;;;;17.08;57.43;98354.69;2087193;28;19928;-50
2022/04/06 01:20:07;;;;;;;;;;;;;;;17.06;57.51;98346.03;2086729;28;19932;-54
2022/04/06 01:21:11;;;;;;;;;;;;;;;17.08;57.60;98340.47;2084928;28;19920;-55
2022/04/06 01:22:14;;;;;;;;;;;;;;;17.08;57.39;98348.53;2087403;28;19924;-53
2022/04/06 01:23:15;;;;;;;;;;;;;;;17.06;57.36;98346.03;2085443;28;19932;-54
2022/04/06 01:24:16;;;;;;;;;;;;;;;17.06;57.45;98350.56;2088409;28;19921;-52
2022/04/06 01:25:17;;;;;;;;;;;;;;;17.04;57.42;98342.72;2087026;28;19931;-52
2022/04/06 01:26:18;;;;;;;;;;;;;;;17.02;57.51;98347.47;2084871;28;19935;-51
2022/04/06 01:27:20;;;;;;;;;;;;;;;17.03;57.54;98346.44;2086065;28;19928;-53
2022/04/06 01:28:21;;;;;;;;;;;;;;;17.02;57.59;98339.44;2084522;28;19924;-50
2022/04/06 01:29:22;;;;;;;;;;;;;;;17.03;57.55;98340.25;2085543;28;19954;-54
2022/04/06 01:30:23;;;;;;;;;;;;;;;17.02;57.53;98341.25;2086960;28;19928;-52
2022/04/06 01:31:24;;;;;;;;;;;;;;;17.02;57.50;98346.63;2086938;28;20622;-52
2022/04/06 01:32:26;;;;;;;;;;;;;;;17.00;57.47;98338.78;2081460;28;20031;-53
2022/04/06 01:33:28;;;;;;;;;;;;;;;16.99;57.68;98339.81;2086687;28;20358;-52
2022/04/06 01:34:28;;;;;;;;;;;;;;;16.99;57.70;98345.16;2081090;28;19982;-50
2022/04/06 01:35:30;;;;;;;;;;;;;;;17.00;57.57;98341.47;2085069;28;19933;-50
2022/04/06 01:36:30;;;;;;;;;;;;;;;17.00;57.50;98340.66;2083840;28;19932;-55
2022/04/06 01:37:34;;;;;;;;;;;;;;;17.00;57.35;98335.28;2085733;28;19921;-51
2022/04/06 01:38:35;;;;;;;;;;;;;;;17.00;57.41;98338.78;2086935;28;19924;-55
2022/04/06 01:39:37;;;;;;;;;;;;;;;16.96;57.58;98338.34;2087406;28;19924;-55
2022/04/06 01:40:38;;;;;;;;;;;;;;;16.97;57.59;98336.53;2087120;28;19947;-50
2022/04/06 01:41:39;;;;;;;;;;;;;;;16.95;57.50;98328.66;2087207;28;20484;-55
2022/04/06 01:42:40;;;;;;;;;;;;;;;16.98;57.63;98340.84;2084186;28;19931;-54
2022/04/06 01:43:42;;;;;;;;;;;;;;;16.95;57.55;98331.34;2086316;28;20483;-55
2022/04/06 01:44:44;;;;;;;;;;;;;;;16.96;57.55;98330.31;2086080;28;19924;-50
2022/04/06 01:45:46;;;;;;;;;;;;;;;16.96;57.53;98329.50;2085042;28;19932;-53
2022/04/06 01:46:46;;;;;;;;;;;;;;;16.95;57.54;98325.16;2086921;28;20332;-51
2022/04/06 01:47:48;;;;;;;;;;;;;;;16.93;57.65;98330.72;2088716;28;19932;-52
2022/04/06 01:52:45;;;;;;;;;;;;;;;16.90;57.58;98324.94;2084853;28;19925;-50
2022/04/06 01:53:50;;;;;;;;;;;;;;;16.90;57.57;98322.25;2086171;28;20016;-53
2022/04/06 01:54:52;;;;;;;;;;;;;;;16.91;57.70;98323.91;2084205;28;19924;-54
2022/04/06 01:55:53;;;;;;;;;;;;;;;16.89;57.72;98312.59;2084454;28;19924;-51
2022/04/06 01:56:55;;;;;;;;;;;;;;;16.89;57.71;98323.28;2086063;28;20293;-53
2022/04/06 01:57:57;;;;;;;;;;;;;;;16.86;57.79;98311.13;2084075;28;20031;-54
2022/04/06 01:58:57;;;;;;;;;;;;;;;16.89;57.63;98315.25;2087144;28;19946;-50
2022/04/06 01:59:59;;;;;;;;;;;;;;;16.87;57.54;98315.44;2084788;28;19925;-54
2022/04/06 02:01:00;;;;;;;;;;;;;;;16.87;57.62;98312.75;2083189;28;19921;-58
2022/04/06 02:02:02;;;;;;;;;;;;;;;16.86;57.53;98310.31;2085091;28;20715;-52
2022/04/06 02:03:04;;;;;;;;;;;;;;;16.84;57.73;98309.66;2087678;28;19927;-56
2022/04/06 02:04:12;;;;;;;;;;;;;;;16.85;57.70;98312.13;2087201;28;19925;-56
2022/04/06 02:05:13;;;;;;;;;;;;;;;16.85;57.74;98314.00;2086107;28;19920;-55
2022/04/06 02:06:14;;;;;;;;;;;;;;;16.86;57.82;98312.97;2087355;28;20301;-53
2022/04/06 02:07:16;;;;;;;;;;;;;;;16.85;57.68;98312.13;2087092;28;20019;-55
2022/04/06 02:08:17;;;;;;;;;;;;;;;16.83;57.78;98310.72;2089793;28;19924;-52
2022/04/06 02:09:20;;;;;;;;;;;;;;;16.83;57.65;98311.53;2078529;28;20295;-50
2022/04/06 02:10:21;;;;;;;;;;;;;;;16.83;57.69;98310.72;2086976;28;20733;-53
2022/04/06 02:11:22;;;;;;;;;;;;;;;16.81;57.61;98312.75;2088127;28;20268;-54
2022/04/06 02:12:23;;;;;;;;;;;;;;;16.81;57.62;98307.41;2087195;28;19939;-52
2022/04/06 02:13:26;;;;;;;;;;;;;;;16.80;57.81;98309.25;2085190;28;20011;-50
2022/04/06 02:14:28;;;;;;;;;;;;;;;16.80;57.52;98308.41;2082362;28;19925;-52
2022/04/06 02:15:28;;;;;;;;;;;;;;;16.81;57.57;98312.75;2085427;28;19930;-52
2022/04/06 02:16:30;;;;;;;;;;;;;;;16.79;57.80;98310.25;2087062;28;19974;-54
2022/04/06 02:17:32;;;;;;;;;;;;;;;16.78;57.56;98308.63;2083530;28;19925;-52
2022/04/06 02:18:33;;;;;;;;;;;;;;;16.75;57.78;98304.44;2086007;28;20427;-51
2022/04/06 02:19:35;;;;;;;;;;;;;;;16.78;57.50;98305.94;2085698;28;19927;-54
2022/04/06 02:20:36;;;;;;;;;;;;;;;16.77;57.57;98303.44;2084245;28;20891;-59
2022/04/06 02:21:38;;;;;;;;;;;;;;;16.77;57.75;98308.81;2087196;28;20289;-50
2022/04/06 02:22:40;;;;;;;;;;;;;;;16.78;57.69;98310.47;2084716;28;20026;-52
2022/04/06 02:23:42;;;;;;;;;;;;;;;16.76;57.59;98299.91;2085981;28;19920;-55
2022/04/06 02:24:43;;;;;;;;;;;;;;;16.75;57.62;98301.78;2084998;28;19982;-58
2022/04/06 02:25:44;;;;;;;;;;;;;;;16.74;57.75;98302.81;2086596;28;19931;-53
2022/04/06 02:26:46;;;;;;;;;;;;;;;16.74;57.77;98301.97;2086887;28;19930;-58
2022/04/06 02:27:47;;;;;;;;;;;;;;;16.74;57.68;98301.97;2087434;28;19940;-51
2022/04/06 02:28:48;;;;;;;;;;;;;;;16.74;57.55;98310.00;2083899;28;20569;-59
2022/04/06 02:29:49;;;;;;;;;;;;;;;16.72;57.75;98304.03;2086615;28;19929;-58
2022/04/06 02:30:50;;;;;;;;;;;;;;;16.70;57.67;98304.22;2086563;28;19920;-53
2022/04/06 02:31:51;;;;;;;;;;;;;;;16.68;57.89;98303.59;2085126;28;20408;-50
2022/04/06 02:32:53;;;;;;;;;;;;;;;16.70;57.88;98306.91;2084971;28;19924;-53
2022/04/06 02:33:53;;;;;;;;;;;;;;;16.69;57.78;98299.06;2087748;28;19921;-50
2022/04/06 02:34:55;;;;;;;;;;;;;;;16.68;57.85;98303.59;2085491;28;20018;-53
2022/04/06 02:35:56;;;;;;;;;;;;;;;16.68;57.84;98300.91;2085228;28;20701;-51
2022/04/06 02:36:57;;;;;;;;;;;;;;;16.69;57.93;98299.06;2083237;28;19930;-55
2022/04/06 02:37:58;;;;;;;;;;;;;;;16.69;57.80;98305.25;2085749;28;20363;-51
2022/04/06 02:39:01;;;;;;;;;;;;;;;16.66;57.85;98300.31;2085011;28;19920;-54
2022/04/06 02:40:02;;;;;;;;;;;;;;;16.66;58.02;98294.94;2083212;28;20691;-53
2022/04/06 02:41:03;;;;;;;;;;;;;;;16.65;57.87;98293.28;2088852;28;19947;-54
2022/04/06 02:42:04;;;;;;;;;;;;;;;16.65;57.89;98293.28;2086523;28;19978;-52
2022/04/06 02:43:06;;;;;;;;;;;;;;;16.64;57.70;98288.97;2086433;28;19921;-53
2022/04/06 02:44:06;;;;;;;;;;;;;;;16.64;57.84;98288.13;2085253;28;19925;-54
2022/04/06 02:45:09;;;;;;;;;;;;;;;16.63;57.69;98281.97;2085108;28;19931;-53
2022/04/06 02:46:10;;;;;;;;;;;;;;;16.64;57.88;98283.59;2085688;28;19932;-54
2022/04/06 02:47:12;;;;;;;;;;;;;;;16.63;57.88;98286.47;2085518;28;20353;-54
2022/04/06 02:48:12;;;;;;;;;;;;;;;16.62;57.71;98292.84;2083872;28;20445;-50
2022/04/06 02:49:14;;;;;;;;;;;;;;;16.62;57.94;98282.97;2084344;28;19932;-51
2022/04/06 02:50:15;;;;;;;;;;;;;;;16.62;57.74;98282.16;2083948;28;19936;-52
2022/04/06 02:51:16;;;;;;;;;;;;;;;16.62;57.81;98280.28;2086777;28;19924;-55
2022/04/06 02:52:17;;;;;;;;;;;;;;;16.62;57.68;98277.63;2084456;28;20008;-54
2022/04/06 02:53:19;;;;;;;;;;;;;;;16.60;57.73;98282.31;2087818;28;20535;-55
2022/04/06 02:54:21;;;;;;;;;;;;;;;16.60;57.87;98284.19;2084891;28;19962;-53
2022/04/06 02:55:22;;;;;;;;;;;;;;;16.61;57.92;98275.97;2087881;28;19939;-54
2022/04/06 02:56:26;;;;;;;;;;;;;;;16.61;57.70;98278.66;2082475;28;19925;-52
2022/04/06 02:57:28;;;;;;;;;;;;;;;16.60;57.89;98279.66;2084013;28;19925;-55
2022/04/06 02:58:29;;;;;;;;;;;;;;;16.60;57.79;98281.50;2081244;28;20519;-55
2022/04/06 02:59:30;;;;;;;;;;;;;;;16.60;57.90;98284.19;2086206;28;19920;-52
2022/04/06 03:00:32;;;;;;;;;;;;;;;16.59;57.81;98277.19;2086654;28;20380;-51
2022/04/06 03:01:34;;;;;;;;;;;;;;;16.59;57.76;98285.22;2084310;28;20581;-53
2022/04/06 03:02:35;;;;;;;;;;;;;;;16.58;57.81;98280.91;2084929;28;20421;-55
2022/04/06 03:03:36;;;;;;;;;;;;;;;16.59;57.70;98275.34;2084452;28;19970;-53
2022/04/06 03:04:37;;;;;;;;;;;;;;;16.58;57.72;98273.69;2084692;28;20413;-54
2022/04/06 03:05:39;;;;;;;;;;;;;;;16.56;57.83;98272.25;2083988;28;20058;-56
2022/04/06 03:06:40;;;;;;;;;;;;;;;16.57;57.81;98282.72;2083432;28;19924;-57
2022/04/06 03:07:42;;;;;;;;;;;;;;;16.54;57.79;98275.09;2085542;28;19975;-64
2022/04/06 03:08:42;;;;;;;;;;;;;;;16.53;57.81;98271.59;2075538;28;21159;-54
2022/04/06 03:09:45;;;;;;;;;;;;;;;16.53;57.91;98274.28;2081167;28;19927;-51
2022/04/06 03:10:46;;;;;;;;;;;;;;;16.54;57.96;98272.41;2084937;28;20697;-57
2022/04/06 03:11:48;;;;;;;;;;;;;;;16.52;57.79;98272.63;2088884;28;19921;-55
2022/04/06 03:12:48;;;;;;;;;;;;;;;16.53;57.81;98279.63;2083885;28;19936;-55
2022/04/06 03:13:51;;;;;;;;;;;;;;;16.53;57.77;98268.09;2086736;28;19927;-59
2022/04/06 03:14:52;;;;;;;;;;;;;;;16.51;57.86;98260.25;2082035;28;19945;-54
2022/04/06 03:15:53;;;;;;;;;;;;;;;16.51;57.92;98267.47;2086726;28;19921;-54
2022/04/06 03:16:54;;;;;;;;;;;;;;;16.50;57.91;98268.50;2084214;28;20375;-54
2022/04/06 03:17:55;;;;;;;;;;;;;;;16.51;57.83;98264.78;2084823;28;19958;-58
2022/04/06 03:18:57;;;;;;;;;;;;;;;16.52;57.69;98266.47;2080268;28;19928;-55
2022/04/06 03:19:58;;;;;;;;;;;;;;;16.50;57.84;98263.97;2085805;28;19928;-52
2022/04/06 03:20:59;;;;;;;;;;;;;;;16.52;57.65;98263.78;2083961;28;19920;-52
2022/04/06 03:22:00;;;;;;;;;;;;;;;16.52;57.82;98272.63;2086064;28;20904;-55
2022/04/06 03:23:03;;;;;;;;;;;;;;;16.50;57.91;98263.97;2086159;28;19943;-55
2022/04/06 03:24:04;;;;;;;;;;;;;;;16.47;57.77;98269.72;2084857;28;20119;-51
2022/04/06 03:25:07;;;;;;;;;;;;;;;16.47;57.69;98259.03;2086656;28;19924;-54
2022/04/06 03:26:09;;;;;;;;;;;;;;;16.46;57.70;98257.34;2085054;28;19921;-56
2022/04/06 03:27:09;;;;;;;;;;;;;;;16.47;57.83;98259.03;2085101;28;19977;-56
2022/04/06 03:28:11;;;;;;;;;;;;;;;16.46;57.82;98261.88;2088716;28;19920;-55
2022/04/06 03:29:12;;;;;;;;;;;;;;;16.48;57.61;98257.16;2084287;28;19928;-55
2022/04/06 03:30:13;;;;;;;;;;;;;;;16.49;57.75;98258.81;2085954;28;19943;-53
2022/04/06 03:31:14;;;;;;;;;;;;;;;16.46;57.79;98261.88;2085875;28;19927;-53
2022/04/06 03:32:16;;;;;;;;;;;;;;;16.46;57.69;98257.34;2085091;28;20069;-53
2022/04/06 03:33:16;;;;;;;;;;;;;;;16.45;57.68;98260.25;2086598;28;19931;-53
2022/04/06 03:34:18;;;;;;;;;;;;;;;16.50;57.55;98263.16;2080194;28;19924;-55
2022/04/06 03:35:18;;;;;;;;;;;;;;;16.45;57.75;98258.38;2085510;28;19921;-56
2022/04/06 03:36:20;;;;;;;;;;;;;;;16.45;57.71;98258.38;2083006;28;19983;-55
2022/04/06 03:37:20;;;;;;;;;;;;;;;16.47;57.70;98258.19;2086644;28;20008;-54
2022/04/06 03:38:22;;;;;;;;;;;;;;;16.42;57.93;98249.94;2081978;28;20402;-55
2022/04/06 03:39:22;;;;;;;;;;;;;;;16.44;57.81;98253.25;2084966;28;19931;-52
2022/04/06 03:40:25;;;;;;;;;;;;;;;16.43;57.80;98256.94;2082962;28;19920;-54
2022/04/06 03:41:26;;;;;;;;;;;;;;;16.39;57.78;98247.66;2088289;28;20340;-54
2022/04/06 03:42:27;;;;;;;;;;;;;;;16.40;57.85;98247.44;2084200;28;19920;-54
2022/04/06 03:43:29;;;;;;;;;;;;;;;16.38;57.81;98254.00;2086952;28;20290;-52
2022/04/06 03:44:30;;;;;;;;;;;;;;;16.38;57.81;98248.66;2085683;28;20031;-54
2022/04/06 03:45:30;;;;;;;;;;;;;;;16.39;57.80;98240.44;2086805;28;19981;-52
2022/04/06 03:46:32;;;;;;;;;;;;;;;16.37;57.86;98242.50;2086960;28;19978;-52
2022/04/06 03:47:34;;;;;;;;;;;;;;;16.41;57.74;98248.25;2086291;28;19921;-55
2022/04/06 03:48:35;;;;;;;;;;;;;;;16.40;57.92;98241.25;2085656;28;20007;-51
2022/04/06 03:49:36;;;;;;;;;;;;;;;16.41;57.77;98234.88;2085140;28;19920;-53
2022/04/06 03:50:38;;;;;;;;;;;;;;;16.40;57.84;98243.94;2086400;28;20543;-53
2022/04/06 03:51:38;;;;;;;;;;;;;;;16.41;57.69;98242.91;2087824;28;19961;-51
2022/04/06 03:52:40;;;;;;;;;;;;;;;16.39;57.89;98245.78;2086741;28;20398;-54
2022/04/06 03:53:41;;;;;;;;;;;;;;;16.39;57.72;98239.63;2087053;28;19982;-55
2022/04/06 03:54:46;;;;;;;;;;;;;;;16.37;57.76;98237.13;2084042;28;20009;-52
2022/04/06 03:55:48;;;;;;;;;;;;;;;16.37;57.84;98237.13;2085703;28;21153;-52
2022/04/06 03:56:50;;;;;;;;;;;;;;;16.39;57.78;98236.94;2085288;28;19927;-53
2022/04/06 03:57:50;;;;;;;;;;;;;;;16.40;57.58;98242.09;2087872;28;19987;-53
2022/04/06 03:58:52;;;;;;;;;;;;;;;16.39;57.61;98240.44;2084229;28;19921;-53
2022/04/06 03:59:53;;;;;;;;;;;;;;;16.38;57.80;98236.13;2084422;28;20604;-54
2022/04/06 04:00:54;;;;;;;;;;;;;;;16.35;57.70;98239.19;2081698;28;19924;-52
2022/04/06 04:01:56;;;;;;;;;;;;;;;16.34;57.85;98239.38;2081667;28;19928;-53
2022/04/06 04:02:57;;;;;;;;;;;;;;;16.37;57.72;98239.81;2087794;28;20002;-52
2022/04/06 04:03:58;;;;;;;;;;;;;;;16.37;57.73;98239.81;2083351;28;20432;-53
2022/04/06 04:05:00;;;;;;;;;;;;;;;16.39;57.65;98234.28;2087117;28;19924;-53
2022/04/06 04:06:02;;;;;;;;;;;;;;;16.34;57.79;98240.22;2085072;28;20011;-52
2022/04/06 04:07:02;;;;;;;;;;;;;;;16.37;57.87;98229.09;2086105;28;19924;-50
2022/04/06 04:08:04;;;;;;;;;;;;;;;16.35;57.44;98228.47;2084896;28;19933;-52
2022/04/06 04:09:05;;;;;;;;;;;;;;;16.36;57.60;98224.78;2081918;28;19928;-51
2022/04/06 04:10:07;;;;;;;;;;;;;;;16.39;57.56;98228.91;2083167;28;20015;-54
2022/04/06 04:11:09;;;;;;;;;;;;;;;16.42;57.62;98221.31;2083368;28;19924;-52
2022/04/06 04:12:11;;;;;;;;;;;;;;;16.47;57.47;98220.72;2087560;28;19920;-51
2022/04/06 04:13:12;;;;;;;;;;;;;;;16.54;57.38;98221.56;2085450;28;20274;-50
2022/04/06 04:14:14;;;;;;;;;;;;;;;16.61;57.15;98225.09;2084571;28;19930;-53
2022/04/06 04:15:14;;;;;;;;;;;;;;;16.65;57.33;98222.84;2084731;28;20362;-53
2022/04/06 04:16:16;;;;;;;;;;;;;;;16.70;57.21;98231.09;2087974;28;19928;-53
2022/04/06 04:17:17;;;;;;;;;;;;;;;16.72;57.22;98227.19;2086701;28;19921;-50
2022/04/06 04:18:18;;;;;;;;;;;;;;;16.77;57.10;98228.47;2084857;28;20271;-53
2022/04/06 04:19:19;;;;;;;;;;;;;;;16.81;57.10;98222.50;2082355;28;20011;-54
2022/04/06 04:20:20;;;;;;;;;;;;;;;16.84;57.23;98226.63;2083537;28;19924;-53
2022/04/06 04:21:33;;;;;;;;;;;;;;;16.86;57.25;98219.22;2085518;28;20470;-53
2022/04/06 04:22:34;;;;;;;;;;;;;;;16.90;57.08;98215.94;2083244;28;19928;-52
2022/04/06 04:23:35;;;;;;;;;;;;;;;16.94;56.95;98219.06;2082324;28;19938;-51
2022/04/06 04:24:36;;;;;;;;;;;;;;;16.97;56.92;98219.47;2086632;28;19975;-50
2022/04/06 04:25:38;;;;;;;;;;;;;;;16.98;56.98;98221.09;2086395;28;20019;-54
2022/04/06 04:26:40;;;;;;;;;;;;;;;17.02;56.82;98224.22;2083215;28;19986;-52
2022/04/06 04:27:42;;;;;;;;;;;;;;;17.05;56.94;98218.47;2085764;28;20347;-52
2022/04/06 04:28:43;;;;;;;;;;;;;;;17.09;56.85;98216.19;2082792;28;19951;-52
2022/04/06 04:29:44;;;;;;;;;;;;;;;17.12;56.86;98218.44;2083550;28;19924;-53
2022/04/06 04:30:45;;;;;;;;;;;;;;;17.15;56.73;98210.81;2084366;28;19955;-53
2022/04/06 04:31:47;;;;;;;;;;;;;;;17.17;56.93;98214.13;2087063;28;19973;-53
2022/04/06 04:32:47;;;;;;;;;;;;;;;17.19;56.77;98217.44;2085154;28;19925;-53
2022/04/06 04:33:49;;;;;;;;;;;;;;;17.21;56.76;98217.22;2087655;28;19920;-53
2022/04/06 04:34:50;;;;;;;;;;;;;;;17.24;56.67;98219.50;2084510;28;21501;-53
2022/04/06 04:35:51;;;;;;;;;;;;;;;17.24;56.73;98216.81;2087164;28;19924;-54
2022/04/06 04:36:52;;;;;;;;;;;;;;;17.28;56.67;98217.25;2087913;28;19920;-53
2022/04/06 04:37:54;;;;;;;;;;;;;;;17.30;56.61;98215.16;2086508;28;19924;-55
2022/04/06 04:38:55;;;;;;;;;;;;;;;17.30;56.70;98217.84;2087283;28;19950;-50
2022/04/06 04:39:56;;;;;;;;;;;;;;;17.32;56.77;98218.47;2089051;28;19938;-54
2022/04/06 04:40:57;;;;;;;;;;;;;;;17.34;56.71;98216.41;2086607;28;20019;-54
2022/04/06 04:42:00;;;;;;;;;;;;;;;17.34;56.68;98211.06;2089309;28;19929;-55
2022/04/06 04:43:03;;;;;;;;;;;;;;;17.36;56.71;98214.38;2085501;28;20509;-50
2022/04/06 04:44:04;;;;;;;;;;;;;;;17.38;56.69;98209.59;2086205;28;20003;-53
2022/04/06 04:45:06;;;;;;;;;;;;;;;17.38;56.76;98214.97;2083368;28;20401;-52
2022/04/06 04:46:07;;;;;;;;;;;;;;;17.40;56.63;98210.22;2086663;28;19924;-54
2022/04/06 04:47:08;;;;;;;;;;;;;;;17.39;56.54;98214.78;2084756;28;19927;-53
2022/04/06 04:48:09;;;;;;;;;;;;;;;17.43;56.62;98212.50;2088865;28;20331;-54
2022/04/06 04:49:11;;;;;;;;;;;;;;;17.44;56.55;98222.22;2086408;28;20007;-54
2022/04/06 04:50:11;;;;;;;;;;;;;;;17.45;56.63;98212.31;2074730;28;20849;-52
2022/04/06 04:51:13;;;;;;;;;;;;;;;17.44;56.69;98216.84;2084083;28;19931;-52
2022/04/06 04:52:15;;;;;;;;;;;;;;;17.46;56.50;98220.13;2086326;28;19925;-57
2022/04/06 04:53:15;;;;;;;;;;;;;;;17.47;56.46;98210.22;2087240;28;19929;-55
2022/04/06 04:54:17;;;;;;;;;;;;;;;17.48;56.71;98210.03;2086494;28;19930;-53
2022/04/06 04:55:18;;;;;;;;;;;;;;;17.49;56.64;98210.84;2089895;28;19921;-53
2022/04/06 04:56:20;;;;;;;;;;;;;;;17.48;56.47;98212.69;2080649;28;22093;-51
2022/04/06 04:57:22;;;;;;;;;;;;;;;17.49;56.45;98217.03;2086305;28;20043;-53
2022/04/06 04:58:23;;;;;;;;;;;;;;;17.50;56.62;98207.16;2087167;28;20158;-52
2022/04/06 04:59:26;;;;;;;;;;;;;;;17.50;56.46;98213.34;2086785;28;20422;-53
2022/04/06 05:00:26;;;;;;;;;;;;;;;17.50;56.57;98213.34;2081688;28;19924;-55
2022/04/06 05:01:28;;;;;;;;;;;;;;;17.52;56.53;98213.09;2089999;28;19924;-54
2022/04/06 05:02:30;;;;;;;;;;;;;;;17.54;56.50;98219.09;2086609;28;19928;-50
2022/04/06 05:03:30;;;;;;;;;;;;;;;17.52;56.59;98208.56;2084836;28;19920;-52
2022/04/06 05:04:32;;;;;;;;;;;;;;;17.52;56.56;98211.25;2087204;28;20402;-53
2022/04/06 05:05:33;;;;;;;;;;;;;;;17.52;56.65;98213.94;2085715;28;19950;-55
2022/04/06 05:06:34;;;;;;;;;;;;;;;17.54;56.53;98211.06;2084950;28;19921;-55
2022/04/06 05:07:37;;;;;;;;;;;;;;;17.54;56.49;98213.72;2088235;28;19925;-56
2022/04/06 05:08:39;;;;;;;;;;;;;;;17.54;56.44;98209.19;2083884;28;19930;-54
2022/04/06 05:09:39;;;;;;;;;;;;;;;17.54;56.43;98211.88;2085445;28;19931;-55
2022/04/06 05:10:41;;;;;;;;;;;;;;;17.54;56.63;98209.19;2084239;28;19927;-54
2022/04/06 05:11:41;;;;;;;;;;;;;;;17.54;56.51;98209.19;2085200;28;19955;-53
2022/04/06 05:12:45;;;;;;;;;;;;;;;17.56;56.31;98211.69;2086280;28;19921;-52
2022/04/06 05:13:46;;;;;;;;;;;;;;;17.55;56.54;98213.53;2085780;28;19921;-54
2022/04/06 05:14:47;;;;;;;;;;;;;;;17.58;56.51;98212.31;2088297;28;19925;-51
2022/04/06 05:15:48;;;;;;;;;;;;;;;17.57;56.37;98205.28;2088026;28;19921;-53
2022/04/06 05:16:50;;;;;;;;;;;;;;;17.57;56.40;98213.31;2086663;28;19921;-51
2022/04/06 05:17:50;;;;;;;;;;;;;;;17.56;56.41;98217.88;2086359;28;20382;-54
2022/04/06 05:18:54;;;;;;;;;;;;;;;17.55;56.47;98218.91;2085982;28;19928;-54
2022/04/06 05:19:54;;;;;;;;;;;;;;;17.56;56.32;98225.91;2090158;28;19920;-55
2022/04/06 05:20:56;;;;;;;;;;;;;;;17.57;56.55;98232.91;2087654;28;20267;-55
2022/04/06 05:21:59;;;;;;;;;;;;;;;17.57;56.32;98227.53;2083494;28;19924;-55
2022/04/06 05:23:00;;;;;;;;;;;;;;;17.56;56.42;98228.59;2086409;28;19932;-54
2022/04/06 05:24:04;;;;;;;;;;;;;;;17.56;56.35;98227.78;2086093;28;19921;-55
2022/04/06 05:25:07;;;;;;;;;;;;;;;17.57;56.47;98227.53;2090368;28;19921;-52
2022/04/06 05:26:09;;;;;;;;;;;;;;;17.57;56.40;98232.09;2089689;28;19964;-53